createdAt,value
2018-06-21T00:00:54.295Z,0.00
2018-06-21T00:01:54.296Z,0.00
2018-06-21T00:02:54.302Z,0.00
2018-06-21T00:03:54.299Z,0.00
2018-06-21T00:04:54.300Z,0.00
2018-06-21T00:05:54.300Z,0.00
2018-06-21T00:06:54.296Z,0.00
2018-06-21T00:07:54.295Z,0.00
2018-06-21T00:08:54.295Z,0.00
2018-06-21T00:09:54.295Z,0.00
2018-06-21T00:10:54.300Z,0.00
2018-06-21T00:11:54.299Z,0.00
2018-06-21T00:12:54.294Z,0.00
2018-06-21T00:13:54.295Z,0.00
2018-06-21T00:14:54.299Z,0.00
2018-06-21T00:15:54.299Z,0.00
2018-06-21T00:16:54.300Z,0.00
2018-06-21T00:17:54.298Z,0.00
2018-06-21T00:18:54.295Z,0.00
2018-06-21T00:19:54.297Z,0.00
2018-06-21T00:20:54.294Z,0.00
2018-06-21T00:21:54.294Z,0.00
2018-06-21T00:22:54.298Z,0.00
2018-06-21T00:23:54.298Z,0.00
2018-06-21T00:24:54.298Z,0.00
2018-06-21T00:25:54.297Z,0.00
2018-06-21T00:26:54.293Z,0.00
2018-06-21T00:27:54.292Z,0.00
2018-06-21T00:28:54.295Z,0.00
2018-06-21T00:29:54.295Z,0.00
2018-06-21T00:30:54.292Z,0.00
2018-06-21T00:31:54.289Z,0.00
2018-06-21T00:32:54.290Z,0.00
2018-06-21T00:33:54.292Z,0.00
2018-06-21T00:34:54.296Z,0.00
2018-06-21T00:35:54.293Z,0.00
2018-06-21T00:36:54.293Z,0.00
2018-06-21T00:37:54.291Z,0.00
2018-06-21T00:38:54.288Z,0.00
2018-06-21T00:39:54.287Z,0.00
2018-06-21T00:40:54.287Z,0.00
2018-06-21T00:41:54.287Z,0.00
2018-06-21T00:42:54.290Z,0.00
2018-06-21T00:43:54.290Z,0.00
2018-06-21T00:44:54.284Z,0.00
2018-06-21T00:45:54.285Z,0.00
2018-06-21T00:46:54.289Z,0.00
2018-06-21T00:47:54.287Z,0.00
2018-06-21T00:48:54.286Z,0.00
2018-06-21T00:49:54.286Z,0.00
2018-06-21T00:50:54.283Z,0.00
2018-06-21T00:51:54.284Z,0.00
2018-06-21T00:52:54.279Z,0.00
2018-06-21T00:53:54.282Z,0.00
2018-06-21T00:54:54.282Z,0.00
2018-06-21T00:55:54.282Z,0.00
2018-06-21T00:56:54.282Z,0.00
2018-06-21T00:57:54.282Z,0.00
2018-06-21T00:58:54.276Z,0.00
2018-06-21T00:59:54.275Z,0.00
2018-06-21T01:00:54.280Z,0.00
2018-06-21T01:01:54.285Z,0.00
2018-06-21T01:02:54.278Z,0.00
2018-06-21T01:03:54.272Z,0.00
2018-06-21T01:04:54.271Z,0.00
2018-06-21T01:05:54.271Z,0.00
2018-06-21T01:06:54.275Z,0.00
2018-06-21T01:07:54.276Z,0.00
2018-06-21T01:08:54.274Z,0.00
2018-06-21T01:09:54.273Z,0.00
2018-06-21T01:10:54.268Z,0.00
2018-06-21T01:11:54.267Z,0.00
2018-06-21T01:12:54.266Z,0.00
2018-06-21T01:13:54.265Z,0.00
2018-06-21T01:14:54.270Z,0.00
2018-06-21T01:15:54.267Z,0.00
2018-06-21T01:16:54.262Z,0.00
2018-06-21T01:17:54.262Z,0.00
2018-06-21T01:18:54.265Z,0.00
2018-06-21T01:19:54.265Z,0.00
2018-06-21T01:20:54.265Z,0.00
2018-06-21T01:21:54.267Z,0.00
2018-06-21T01:22:54.260Z,0.00
2018-06-21T01:23:54.256Z,0.00
2018-06-21T01:24:54.256Z,0.00
2018-06-21T01:25:54.259Z,0.00
2018-06-21T01:26:54.263Z,0.00
2018-06-21T01:27:54.257Z,0.00
2018-06-21T01:28:54.257Z,0.00
2018-06-21T01:29:54.257Z,0.00
2018-06-21T01:30:54.250Z,0.00
2018-06-21T01:31:54.251Z,0.00
2018-06-21T01:32:54.256Z,0.00
2018-06-21T01:33:54.253Z,0.00
2018-06-21T01:34:54.247Z,0.00
2018-06-21T01:35:54.245Z,0.00
2018-06-21T01:36:54.245Z,0.00
2018-06-21T01:37:54.243Z,0.00
2018-06-21T01:38:54.247Z,0.00
2018-06-21T01:39:54.245Z,0.00
2018-06-21T01:40:54.246Z,0.00
2018-06-21T01:41:54.244Z,0.00
2018-06-21T01:42:54.239Z,0.00
2018-06-21T01:43:54.241Z,0.00
2018-06-21T01:44:54.236Z,0.00
2018-06-21T01:45:54.234Z,0.00
2018-06-21T01:46:54.239Z,0.00
2018-06-21T01:47:54.238Z,0.00
2018-06-21T01:48:54.236Z,0.00
2018-06-21T01:49:54.231Z,0.00
2018-06-21T01:50:54.235Z,0.00
2018-06-21T01:51:54.236Z,0.00
2018-06-21T01:52:54.234Z,0.00
2018-06-21T01:53:54.232Z,0.00
2018-06-21T01:54:54.226Z,0.00
2018-06-21T01:55:54.225Z,0.00
2018-06-21T01:56:54.224Z,0.00
2018-06-21T01:57:54.222Z,0.00
2018-06-21T01:58:54.227Z,0.00
2018-06-21T01:59:54.226Z,0.00
2018-06-21T02:00:54.223Z,0.00
2018-06-21T02:01:54.226Z,0.00
2018-06-21T02:02:54.218Z,0.00
2018-06-21T02:03:54.216Z,0.00
2018-06-21T02:04:54.219Z,0.00
2018-06-21T02:05:54.217Z,0.00
2018-06-21T02:06:54.212Z,0.00
2018-06-21T02:07:54.210Z,0.00
2018-06-21T02:08:54.210Z,0.00
2018-06-21T02:09:54.219Z,0.00
2018-06-21T02:10:54.213Z,0.00
2018-06-21T02:11:54.215Z,0.00
2018-06-21T02:12:54.210Z,0.00
2018-06-21T02:13:54.211Z,0.00
2018-06-21T02:14:54.204Z,0.00
2018-06-21T02:15:54.202Z,0.00
2018-06-21T02:16:54.200Z,0.00
2018-06-21T02:17:54.200Z,0.00
2018-06-21T02:18:54.204Z,0.00
2018-06-21T02:19:54.202Z,0.00
2018-06-21T02:20:54.197Z,0.00
2018-06-21T02:21:54.195Z,0.00
2018-06-21T02:22:54.199Z,0.00
2018-06-21T02:23:54.197Z,0.00
2018-06-21T02:24:54.196Z,0.00
2018-06-21T02:25:54.195Z,0.00
2018-06-21T02:26:54.190Z,0.00
2018-06-21T02:27:54.188Z,0.00
2018-06-21T02:28:54.186Z,0.00
2018-06-21T02:29:54.186Z,0.00
2018-06-21T02:30:54.191Z,0.00
2018-06-21T02:31:54.188Z,0.00
2018-06-21T02:32:54.186Z,4.00
2018-06-21T02:33:54.184Z,4.00
2018-06-21T02:34:54.180Z,0.00
2018-06-21T02:35:54.177Z,0.00
2018-06-21T02:36:54.180Z,4.00
2018-06-21T02:37:54.179Z,4.00
2018-06-21T02:38:54.173Z,0.00
2018-06-21T02:39:54.172Z,4.00
2018-06-21T02:40:54.172Z,4.00
2018-06-21T02:41:54.170Z,4.00
2018-06-21T02:42:54.175Z,8.00
2018-06-21T02:43:54.173Z,8.00
2018-06-21T02:44:54.169Z,4.00
2018-06-21T02:45:54.169Z,8.00
2018-06-21T02:46:54.165Z,12.00
2018-06-21T02:47:54.162Z,12.00
2018-06-21T02:48:54.160Z,12.00
2018-06-21T02:49:54.159Z,12.00
2018-06-21T02:50:54.163Z,16.00
2018-06-21T02:51:54.161Z,16.00
2018-06-21T02:52:54.153Z,20.00
2018-06-21T02:53:54.175Z,24.00
2018-06-21T02:54:54.157Z,24.00
2018-06-21T02:55:54.156Z,28.00
2018-06-21T02:56:54.153Z,28.00
2018-06-21T02:57:54.151Z,32.00
2018-06-21T02:58:54.146Z,36.00
2018-06-21T02:59:54.144Z,40.00
2018-06-21T03:00:54.141Z,48.00
2018-06-21T03:01:54.143Z,52.00
2018-06-21T03:02:54.144Z,56.00
2018-06-21T03:03:54.194Z,60.00
2018-06-21T03:04:54.144Z,68.00
2018-06-21T03:05:54.140Z,72.00
2018-06-21T03:06:54.138Z,80.00
2018-06-21T03:07:54.131Z,88.00
2018-06-21T03:08:54.135Z,92.00
2018-06-21T03:09:54.134Z,100.00
2018-06-21T03:10:54.129Z,112.00
2018-06-21T03:11:54.126Z,120.00
2018-06-21T03:12:54.127Z,128.00
2018-06-21T03:13:54.123Z,136.00
2018-06-21T03:14:54.126Z,148.00
2018-06-21T03:15:54.125Z,160.00
2018-06-21T03:16:54.124Z,168.00
2018-06-21T03:17:54.122Z,184.00
2018-06-21T03:18:54.116Z,196.00
2018-06-21T03:19:54.113Z,212.00
2018-06-21T03:20:54.112Z,224.00
2018-06-21T03:21:54.111Z,240.00
2018-06-21T03:22:54.116Z,256.00
2018-06-21T03:23:54.112Z,272.00
2018-06-21T03:24:54.109Z,288.00
2018-06-21T03:25:54.106Z,304.00
2018-06-21T03:26:54.110Z,320.00
2018-06-21T03:27:54.107Z,336.00
2018-06-21T03:28:54.105Z,348.00
2018-06-21T03:29:54.104Z,368.00
2018-06-21T03:30:54.099Z,384.00
2018-06-21T03:31:54.099Z,400.00
2018-06-21T03:32:54.096Z,416.00
2018-06-21T03:33:54.094Z,436.00
2018-06-21T03:34:54.097Z,460.00
2018-06-21T03:35:54.095Z,472.00
2018-06-21T03:36:54.095Z,492.00
2018-06-21T03:37:54.094Z,512.00
2018-06-21T03:38:54.088Z,528.00
2018-06-21T03:39:54.086Z,556.00
2018-06-21T03:40:54.089Z,588.00
2018-06-21T03:41:54.088Z,616.00
2018-06-21T03:42:54.082Z,640.00
2018-06-21T03:43:54.084Z,664.00
2018-06-21T03:44:54.079Z,712.00
2018-06-21T03:45:54.077Z,764.00
2018-06-21T03:46:54.080Z,832.00
2018-06-21T03:47:54.077Z,884.00
2018-06-21T03:48:54.076Z,920.00
2018-06-21T03:49:54.078Z,1020.00
2018-06-21T03:50:54.073Z,1120.00
2018-06-21T03:51:54.069Z,1216.00
2018-06-21T03:52:54.068Z,1280.00
2018-06-21T03:53:54.070Z,1312.00
2018-06-21T03:54:54.071Z,1312.00
2018-06-21T03:55:54.069Z,1340.00
2018-06-21T03:56:54.062Z,1396.00
2018-06-21T03:57:54.061Z,1452.00
2018-06-21T03:58:54.064Z,1488.00
2018-06-21T03:59:54.062Z,1544.00
2018-06-21T04:00:54.061Z,1636.00
2018-06-21T04:01:54.060Z,1660.00
2018-06-21T04:02:54.057Z,1620.00
2018-06-21T04:03:54.053Z,1636.00
2018-06-21T04:04:54.050Z,1752.00
2018-06-21T04:05:54.051Z,1828.00
2018-06-21T04:06:54.054Z,1848.00
2018-06-21T04:07:54.052Z,1920.00
2018-06-21T04:08:54.052Z,1988.00
2018-06-21T04:09:54.052Z,2000.00
2018-06-21T04:10:54.045Z,2060.00
2018-06-21T04:11:54.043Z,2148.00
2018-06-21T04:12:54.048Z,2188.00
2018-06-21T04:13:54.046Z,2184.00
2018-06-21T04:14:54.040Z,2088.00
2018-06-21T04:15:54.039Z,1996.00
2018-06-21T04:16:54.038Z,1944.00
2018-06-21T04:17:54.038Z,1836.00
2018-06-21T04:18:54.041Z,1756.00
2018-06-21T04:19:54.039Z,1780.00
2018-06-21T04:20:54.039Z,1876.00
2018-06-21T04:21:54.037Z,2008.00
2018-06-21T04:22:54.033Z,2092.00
2018-06-21T04:23:54.032Z,2108.00
2018-06-21T04:24:54.031Z,2048.00
2018-06-21T04:25:54.031Z,1784.00
2018-06-21T04:26:54.034Z,1536.00
2018-06-21T04:27:54.036Z,1680.00
2018-06-21T04:28:54.031Z,1888.00
2018-06-21T04:29:54.027Z,2004.00
2018-06-21T04:30:54.037Z,2068.00
2018-06-21T04:31:54.033Z,2220.00
2018-06-21T04:32:54.033Z,2360.00
2018-06-21T04:33:54.033Z,2372.00
2018-06-21T04:34:54.023Z,2472.00
2018-06-21T04:35:54.023Z,2600.00
2018-06-21T04:36:54.024Z,2336.00
2018-06-21T04:37:54.038Z,1960.00
2018-06-21T04:38:54.024Z,1900.00
2018-06-21T04:39:54.026Z,1724.00
2018-06-21T04:40:54.026Z,1612.00
2018-06-21T04:41:54.028Z,1828.00
2018-06-21T04:42:54.020Z,2104.00
2018-06-21T04:43:54.018Z,2120.00
2018-06-21T04:44:54.025Z,1852.00
2018-06-21T04:45:54.128Z,1324.00
2018-06-21T04:46:54.019Z,1312.00
2018-06-21T04:47:54.016Z,1260.00
2018-06-21T04:48:54.015Z,1392.00
2018-06-21T04:49:54.016Z,1316.00
2018-06-21T04:50:54.020Z,1120.00
2018-06-21T04:51:54.018Z,1036.00
2018-06-21T04:52:54.019Z,960.00
2018-06-21T04:53:54.019Z,920.00
2018-06-21T04:54:54.013Z,956.00
2018-06-21T04:55:54.013Z,868.00
2018-06-21T04:56:54.012Z,972.00
2018-06-21T04:57:54.012Z,1044.00
2018-06-21T04:58:54.016Z,1080.00
2018-06-21T04:59:54.015Z,1040.00
2018-06-21T05:00:54.011Z,944.00
2018-06-21T05:01:54.011Z,820.00
2018-06-21T05:02:54.015Z,764.00
2018-06-21T05:03:54.014Z,888.00
2018-06-21T05:04:54.013Z,876.00
2018-06-21T05:05:54.013Z,708.00
2018-06-21T05:06:54.008Z,836.00
2018-06-21T05:07:54.007Z,984.00
2018-06-21T05:08:54.007Z,868.00
2018-06-21T05:09:54.007Z,780.00
2018-06-21T05:10:54.012Z,768.00
2018-06-21T05:11:54.011Z,708.00
2018-06-21T05:12:54.009Z,708.00
2018-06-21T05:13:54.008Z,672.00
2018-06-21T05:14:54.005Z,764.00
2018-06-21T05:15:54.004Z,724.00
2018-06-21T05:16:54.008Z,740.00
2018-06-21T05:17:54.007Z,720.00
2018-06-21T05:18:54.003Z,656.00
2018-06-21T05:19:54.004Z,640.00
2018-06-21T05:20:54.001Z,824.00
2018-06-21T05:21:54.001Z,888.00
2018-06-21T05:22:54.009Z,888.00
2018-06-21T05:23:54.004Z,848.00
2018-06-21T05:24:53.994Z,744.00
2018-06-21T05:25:54.004Z,648.00
2018-06-21T05:26:53.998Z,664.00
2018-06-21T05:27:53.986Z,824.00
2018-06-21T05:28:53.986Z,860.00
2018-06-21T05:29:53.986Z,896.00
2018-06-21T05:30:53.991Z,888.00
2018-06-21T05:31:53.989Z,844.00
2018-06-21T05:32:53.983Z,916.00
2018-06-21T05:33:53.983Z,936.00
2018-06-21T05:34:53.986Z,956.00
2018-06-21T05:35:53.985Z,916.00
2018-06-21T05:36:53.986Z,820.00
2018-06-21T05:37:53.986Z,784.00
2018-06-21T05:38:53.980Z,796.00
2018-06-21T05:39:53.981Z,792.00
2018-06-21T05:40:53.978Z,836.00
2018-06-21T05:41:53.977Z,908.00
2018-06-21T05:42:53.981Z,868.00
2018-06-21T05:43:53.983Z,772.00
2018-06-21T05:44:53.979Z,716.00
2018-06-21T05:45:53.978Z,696.00
2018-06-21T05:46:53.974Z,760.00
2018-06-21T05:47:53.972Z,716.00
2018-06-21T05:48:53.977Z,580.00
2018-06-21T05:49:53.976Z,476.00
2018-06-21T05:50:53.977Z,492.00
2018-06-21T05:51:53.970Z,540.00
2018-06-21T05:52:53.970Z,644.00
2018-06-21T05:53:53.969Z,772.00
2018-06-21T05:54:53.974Z,692.00
2018-06-21T05:55:53.972Z,692.00
2018-06-21T05:56:53.972Z,652.00
2018-06-21T05:57:53.970Z,636.00
2018-06-21T05:58:53.965Z,632.00
2018-06-21T05:59:53.963Z,668.00
2018-06-21T06:00:53.964Z,612.00
2018-06-21T06:01:53.979Z,844.00
2018-06-21T06:02:53.968Z,764.00
2018-06-21T06:03:53.968Z,728.00
2018-06-21T06:04:53.964Z,1016.00
2018-06-21T06:05:53.961Z,1000.00
2018-06-21T06:06:53.965Z,788.00
2018-06-21T06:07:53.962Z,1396.00
2018-06-21T06:08:53.961Z,1048.00
2018-06-21T06:09:53.961Z,1052.00
2018-06-21T06:10:53.956Z,684.00
2018-06-21T06:11:53.954Z,952.00
2018-06-21T06:12:53.954Z,928.00
2018-06-21T06:13:53.953Z,1052.00
2018-06-21T06:14:53.957Z,1292.00
2018-06-21T06:15:53.955Z,1432.00
2018-06-21T06:16:53.955Z,1404.00
2018-06-21T06:17:53.955Z,1344.00
2018-06-21T06:18:53.951Z,1280.00
2018-06-21T06:19:53.982Z,1700.00
2018-06-21T06:20:53.951Z,2320.00
2018-06-21T06:21:53.951Z,2292.00
2018-06-21T06:22:53.945Z,1976.00
2018-06-21T06:23:53.945Z,2028.00
2018-06-21T06:24:53.944Z,1892.00
2018-06-21T06:25:53.942Z,2124.00
2018-06-21T06:26:53.947Z,1724.00
2018-06-21T06:27:53.945Z,1664.00
2018-06-21T06:28:53.945Z,1212.00
2018-06-21T06:29:53.945Z,1056.00
2018-06-21T06:30:53.940Z,1112.00
2018-06-21T06:31:53.938Z,1868.00
2018-06-21T06:32:53.938Z,1796.00
2018-06-21T06:33:53.937Z,1672.00
2018-06-21T06:34:53.941Z,2016.00
2018-06-21T06:35:53.941Z,2116.00
2018-06-21T06:36:53.935Z,2244.00
2018-06-21T06:37:53.935Z,3096.00
2018-06-21T06:38:53.939Z,3868.00
2018-06-21T06:39:53.939Z,4772.00
2018-06-21T06:40:53.936Z,5356.00
2018-06-21T06:41:53.936Z,5488.00
2018-06-21T06:42:53.932Z,5236.00
2018-06-21T06:43:53.930Z,5204.00
2018-06-21T06:44:53.929Z,5984.00
2018-06-21T06:45:53.929Z,6484.00
2018-06-21T06:46:53.935Z,6440.00
2018-06-21T06:47:53.935Z,6780.00
2018-06-21T06:48:53.932Z,5764.00
2018-06-21T06:49:53.933Z,5052.00
2018-06-21T06:50:53.927Z,5104.00
2018-06-21T06:51:53.969Z,5484.00
2018-06-21T06:52:53.933Z,5536.00
2018-06-21T06:53:53.931Z,5372.00
2018-06-21T06:54:53.928Z,5324.00
2018-06-21T06:55:53.926Z,6216.00
2018-06-21T06:56:53.926Z,6808.00
2018-06-21T06:57:53.929Z,6896.00
2018-06-21T06:58:53.930Z,10172.00
2018-06-21T06:59:53.931Z,12648.00
2018-06-21T07:00:53.932Z,10876.00
2018-06-21T07:01:53.931Z,13472.00
2018-06-21T07:02:53.928Z,21888.00
2018-06-21T07:03:53.941Z,15048.00
2018-06-21T07:04:53.930Z,8392.00
2018-06-21T07:05:53.929Z,7492.00
2018-06-21T07:06:53.933Z,9992.00
2018-06-21T07:07:53.933Z,13620.00
2018-06-21T07:08:53.930Z,12780.00
2018-06-21T07:09:53.932Z,12040.00
2018-06-21T07:10:53.936Z,18976.00
2018-06-21T07:11:53.936Z,16512.00
2018-06-21T07:12:53.940Z,15488.00
2018-06-21T07:13:53.942Z,14168.00
2018-06-21T07:14:53.938Z,10284.00
2018-06-21T07:15:53.940Z,10540.00
2018-06-21T07:16:53.940Z,10160.00
2018-06-21T07:17:53.942Z,5532.00
2018-06-21T07:18:53.949Z,4824.00
2018-06-21T07:19:53.951Z,7192.00
2018-06-21T07:20:53.951Z,3940.00
2018-06-21T07:21:53.954Z,2524.00
2018-06-21T07:22:53.952Z,2612.00
2018-06-21T07:23:53.954Z,1724.00
2018-06-21T07:24:53.959Z,1576.00
2018-06-21T07:25:53.961Z,2144.00
2018-06-21T07:26:53.959Z,2456.00
2018-06-21T07:27:53.961Z,1884.00
2018-06-21T07:28:53.962Z,2096.00
2018-06-21T07:29:53.964Z,1760.00
2018-06-21T07:30:53.972Z,1316.00
2018-06-21T07:31:53.971Z,1152.00
2018-06-21T07:32:53.974Z,1748.00
2018-06-21T07:33:53.974Z,3084.00
2018-06-21T07:34:53.972Z,2980.00
2018-06-21T07:35:53.972Z,2464.00
2018-06-21T07:36:53.973Z,2792.00
2018-06-21T07:37:53.974Z,2780.00
2018-06-21T07:38:53.984Z,2436.00
2018-06-21T07:39:53.980Z,3240.00
2018-06-21T07:40:53.977Z,4188.00
2018-06-21T07:41:53.978Z,2732.00
2018-06-21T07:42:53.983Z,2432.00
2018-06-21T07:43:53.983Z,2408.00
2018-06-21T07:44:53.985Z,2908.00
2018-06-21T07:45:53.985Z,4416.00
2018-06-21T07:46:53.999Z,4824.00
2018-06-21T07:47:53.981Z,6056.00
2018-06-21T07:48:53.981Z,8376.00
2018-06-21T07:49:53.982Z,11208.00
2018-06-21T07:50:53.987Z,13644.00
2018-06-21T07:51:53.988Z,15828.00
2018-06-21T07:52:53.986Z,18400.00
2018-06-21T07:53:54.051Z,19264.00
2018-06-21T07:54:53.983Z,16896.00
2018-06-21T07:55:53.985Z,17120.00
2018-06-21T07:56:53.988Z,18304.00
2018-06-21T07:57:53.988Z,22656.00
2018-06-21T07:58:53.986Z,22432.00
2018-06-21T07:59:53.986Z,16896.00
2018-06-21T08:00:53.987Z,15584.00
2018-06-21T08:01:53.990Z,14452.00
2018-06-21T08:02:53.995Z,14960.00
2018-06-21T08:03:53.998Z,14936.00
2018-06-21T08:04:53.992Z,14916.00
2018-06-21T08:05:53.999Z,14788.00
2018-06-21T08:06:54.003Z,13200.00
2018-06-21T08:07:54.002Z,12388.00
2018-06-21T08:08:54.004Z,12796.00
2018-06-21T08:09:54.008Z,11072.00
2018-06-21T08:10:54.009Z,11476.00
2018-06-21T08:11:54.007Z,11408.00
2018-06-21T08:12:54.067Z,15260.00
2018-06-21T08:13:54.017Z,12144.00
2018-06-21T08:14:54.017Z,17984.00
2018-06-21T08:15:54.016Z,17504.00
2018-06-21T08:16:54.019Z,25792.00
2018-06-21T08:17:54.022Z,26944.00
2018-06-21T08:18:54.030Z,20320.00
2018-06-21T08:19:54.030Z,22848.00
2018-06-21T08:20:54.035Z,17408.00
2018-06-21T08:21:54.038Z,18304.00
2018-06-21T08:22:54.035Z,15016.00
2018-06-21T08:23:54.037Z,11728.00
2018-06-21T08:24:54.041Z,16768.00
2018-06-21T08:25:54.046Z,12912.00
2018-06-21T08:26:54.150Z,17632.00
2018-06-21T08:27:54.055Z,24352.00
2018-06-21T08:28:54.053Z,56576.00
2018-06-21T08:29:54.056Z,33824.00
2018-06-21T08:30:54.064Z,46752.00
2018-06-21T08:31:54.067Z,73920.00
2018-06-21T08:32:54.071Z,76768.00
2018-06-21T08:33:54.077Z,32000.00
2018-06-21T08:34:54.077Z,14768.00
2018-06-21T08:35:54.084Z,13128.00
2018-06-21T08:36:54.088Z,11368.00
2018-06-21T08:37:54.094Z,12516.00
2018-06-21T08:38:54.110Z,12272.00
2018-06-21T08:39:54.111Z,39072.00
2018-06-21T08:40:54.114Z,37056.00
2018-06-21T08:41:54.121Z,22304.00
2018-06-21T08:42:54.123Z,31008.00
2018-06-21T08:43:54.128Z,12504.00
2018-06-21T08:44:54.139Z,12428.00
2018-06-21T08:45:54.200Z,10212.00
2018-06-21T08:46:54.148Z,7780.00
2018-06-21T08:47:54.154Z,9564.00
2018-06-21T08:48:54.161Z,13764.00
2018-06-21T08:49:54.167Z,12824.00
2018-06-21T08:50:54.179Z,18144.00
2018-06-21T08:51:54.212Z,9276.00
2018-06-21T08:52:54.190Z,7592.00
2018-06-21T08:53:54.196Z,33632.00
2018-06-21T08:54:54.198Z,25216.00
2018-06-21T08:55:54.202Z,14552.00
2018-06-21T08:56:54.208Z,13496.00
2018-06-21T08:57:54.215Z,13540.00
2018-06-21T08:58:54.224Z,33792.00
2018-06-21T08:59:54.229Z,23712.00
2018-06-21T09:00:54.231Z,20672.00
2018-06-21T09:01:54.240Z,28768.00
2018-06-21T09:02:54.247Z,26432.00
2018-06-21T09:03:54.337Z,13916.00
2018-06-21T09:04:54.258Z,19328.00
2018-06-21T09:05:54.265Z,22048.00
2018-06-21T09:06:54.265Z,33632.00
2018-06-21T09:07:54.270Z,36416.00
2018-06-21T09:08:54.279Z,15852.00
2018-06-21T09:09:54.283Z,17216.00
2018-06-21T09:10:54.296Z,21600.00
2018-06-21T09:11:54.301Z,27808.00
2018-06-21T09:12:54.310Z,21280.00
2018-06-21T09:13:54.313Z,32544.00
2018-06-21T09:14:54.315Z,42528.00
2018-06-21T09:15:54.322Z,41120.00
2018-06-21T09:16:54.333Z,77632.00
2018-06-21T09:17:54.339Z,57088.00
2018-06-21T09:18:54.342Z,19872.00
2018-06-21T09:19:54.348Z,23872.00
2018-06-21T09:20:54.355Z,39424.00
2018-06-21T09:21:54.362Z,74816.00
2018-06-21T09:22:54.376Z,78272.00
2018-06-21T09:23:54.383Z,18848.00
2018-06-21T09:24:54.392Z,47104.00
2018-06-21T09:25:54.401Z,19712.00
2018-06-21T09:26:54.409Z,10552.00
2018-06-21T09:27:54.416Z,7420.00
2018-06-21T09:28:54.431Z,4724.00
2018-06-21T09:29:54.438Z,4244.00
2018-06-21T09:30:54.452Z,8252.00
2018-06-21T09:31:54.461Z,9724.00
2018-06-21T09:32:54.466Z,11928.00
2018-06-21T09:33:54.477Z,25120.00
2018-06-21T09:34:54.489Z,43136.00
2018-06-21T09:35:54.499Z,78528.00
2018-06-21T09:36:54.506Z,80864.00
2018-06-21T09:37:54.516Z,92448.00
2018-06-21T09:38:54.520Z,65792.00
2018-06-21T09:39:54.529Z,19744.00
2018-06-21T09:40:54.540Z,56736.00
2018-06-21T09:41:54.588Z,13584.00
2018-06-21T09:42:54.566Z,12836.00
2018-06-21T09:44:03.821Z,8792.00
2018-06-21T09:44:54.588Z,9156.00
2018-06-21T09:45:54.598Z,9440.00
2018-06-21T09:46:54.627Z,9768.00
2018-06-21T09:47:54.614Z,8616.00
2018-06-21T09:48:54.631Z,7280.00
2018-06-21T09:49:54.638Z,10472.00
2018-06-21T09:50:54.643Z,125536.00
2018-06-21T09:51:54.652Z,128256.00
2018-06-21T09:52:54.660Z,134944.00
2018-06-21T09:53:54.669Z,27744.00
2018-06-21T09:54:54.683Z,22688.00
2018-06-21T09:55:54.692Z,133856.00
2018-06-21T09:56:54.705Z,17792.00
2018-06-21T09:57:54.713Z,12300.00
2018-06-21T09:58:54.719Z,11504.00
2018-06-21T09:59:54.726Z,23072.00
2018-06-21T10:00:54.736Z,16960.00
2018-06-21T10:01:54.747Z,119616.00
2018-06-21T10:02:54.763Z,114624.00
2018-06-21T10:03:54.770Z,116128.00
2018-06-21T10:04:54.776Z,112256.00
2018-06-21T10:05:54.786Z,113248.00
2018-06-21T10:06:54.801Z,114688.00
2018-06-21T10:07:54.812Z,111648.00
2018-06-21T10:08:54.823Z,68256.00
2018-06-21T10:09:54.836Z,91584.00
2018-06-21T10:10:54.845Z,81504.00
2018-06-21T10:11:54.857Z,10504.00
2018-06-21T10:12:54.871Z,81472.00
2018-06-21T10:13:54.886Z,89760.00
2018-06-21T10:14:54.904Z,86752.00
2018-06-21T10:15:54.920Z,87232.00
2018-06-21T10:16:54.932Z,84896.00
2018-06-21T10:17:54.948Z,88576.00
2018-06-21T10:18:54.959Z,88064.00
2018-06-21T10:19:55.030Z,93152.00
2018-06-21T10:20:54.995Z,89856.00
2018-06-21T10:21:55.010Z,13132.00
2018-06-21T10:22:55.022Z,19136.00
2018-06-21T10:23:55.038Z,9168.00
2018-06-21T10:24:55.055Z,11832.00
2018-06-21T10:25:55.071Z,90688.00
2018-06-21T10:26:55.092Z,88800.00
2018-06-21T10:27:55.107Z,86752.00
2018-06-21T10:28:55.123Z,7312.00
2018-06-21T10:29:55.138Z,6732.00
2018-06-21T10:30:55.147Z,7124.00
2018-06-21T10:31:55.163Z,86752.00
2018-06-21T10:32:55.176Z,89280.00
2018-06-21T10:33:55.191Z,81120.00
2018-06-21T10:34:55.266Z,18688.00
2018-06-21T10:35:55.224Z,26656.00
2018-06-21T10:36:55.233Z,9056.00
2018-06-21T10:37:55.247Z,8924.00
2018-06-21T10:38:55.266Z,91104.00
2018-06-21T10:39:55.278Z,88192.00
2018-06-21T10:40:55.292Z,88480.00
2018-06-21T10:41:55.307Z,90464.00
2018-06-21T10:42:55.314Z,13284.00
2018-06-21T10:43:55.328Z,14872.00
2018-06-21T10:44:55.340Z,89888.00
2018-06-21T10:45:55.356Z,22368.00
2018-06-21T10:46:55.372Z,90912.00
2018-06-21T10:47:55.384Z,89600.00
2018-06-21T10:48:55.397Z,88256.00
2018-06-21T10:49:55.410Z,91040.00
2018-06-21T10:50:55.417Z,88192.00
2018-06-21T10:51:55.433Z,87808.00
2018-06-21T10:52:55.448Z,87616.00
2018-06-21T10:53:55.462Z,87744.00
2018-06-21T10:54:55.473Z,88256.00
2018-06-21T10:55:55.485Z,88960.00
2018-06-21T10:56:55.501Z,90368.00
2018-06-21T10:57:55.515Z,93280.00
2018-06-21T10:58:55.534Z,97120.00
2018-06-21T10:59:55.549Z,9692.00
2018-06-21T11:00:55.563Z,97216.00
2018-06-21T11:01:55.581Z,81216.00
2018-06-21T11:02:55.589Z,94496.00
2018-06-21T11:03:55.608Z,97184.00
2018-06-21T11:04:55.618Z,94688.00
2018-06-21T11:05:55.634Z,86432.00
2018-06-21T11:06:55.655Z,87840.00
2018-06-21T11:07:55.668Z,92064.00
2018-06-21T11:08:55.680Z,95392.00
2018-06-21T11:09:55.695Z,100448.00
2018-06-21T11:10:55.716Z,106624.00
2018-06-21T11:11:55.730Z,112096.00
2018-06-21T11:12:55.746Z,108960.00
2018-06-21T11:13:55.778Z,110144.00
2018-06-21T11:14:55.775Z,108704.00
2018-06-21T11:15:55.788Z,13548.00
2018-06-21T11:16:55.841Z,127456.00
2018-06-21T11:17:55.821Z,128800.00
2018-06-21T11:18:55.841Z,128352.00
2018-06-21T11:19:55.855Z,118304.00
2018-06-21T11:20:55.873Z,22624.00
2018-06-21T11:21:55.889Z,20832.00
2018-06-21T11:22:55.897Z,33728.00
2018-06-21T11:23:55.913Z,15208.00
2018-06-21T11:24:55.930Z,11996.00
2018-06-21T11:25:55.946Z,11820.00
2018-06-21T11:26:55.954Z,12444.00
2018-06-21T11:27:56.027Z,18656.00
2018-06-21T11:28:55.987Z,17472.00
2018-06-21T11:29:55.992Z,10920.00
2018-06-21T11:30:56.010Z,9496.00
2018-06-21T11:31:56.024Z,12980.00
2018-06-21T11:32:56.038Z,14544.00
2018-06-21T11:33:56.044Z,15840.00
2018-06-21T11:34:56.056Z,10236.00
2018-06-21T11:35:56.062Z,8644.00
2018-06-21T11:36:56.073Z,7488.00
2018-06-21T11:37:56.082Z,6892.00
2018-06-21T11:38:56.096Z,6820.00
2018-06-21T11:39:56.105Z,10156.00
2018-06-21T11:40:56.110Z,9688.00
2018-06-21T11:41:56.117Z,6452.00
2018-06-21T11:42:56.131Z,6752.00
2018-06-21T11:43:56.137Z,7684.00
2018-06-21T11:44:56.145Z,7576.00
2018-06-21T11:45:56.152Z,7096.00
2018-06-21T11:46:56.155Z,7016.00
2018-06-21T11:47:56.164Z,6228.00
2018-06-21T11:48:56.169Z,9232.00
2018-06-21T11:49:56.175Z,11688.00
2018-06-21T11:50:56.186Z,11856.00
2018-06-21T11:51:56.194Z,10048.00
2018-06-21T11:52:56.203Z,9900.00
2018-06-21T11:53:56.205Z,7296.00
2018-06-21T11:54:56.205Z,7388.00
2018-06-21T11:55:56.210Z,6092.00
2018-06-21T11:56:56.221Z,6840.00
2018-06-21T11:57:56.227Z,6504.00
2018-06-21T11:58:56.226Z,8160.00
2018-06-21T11:59:56.230Z,8012.00
2018-06-21T12:00:56.239Z,6964.00
2018-06-21T12:01:56.241Z,6424.00
2018-06-21T12:02:56.250Z,6388.00
2018-06-21T12:03:56.256Z,7720.00
2018-06-21T12:04:56.261Z,6900.00
2018-06-21T12:05:56.264Z,5364.00
2018-06-21T12:06:56.264Z,6368.00
2018-06-21T12:07:56.268Z,8532.00
2018-06-21T12:08:56.273Z,8520.00
2018-06-21T12:09:56.277Z,7868.00
2018-06-21T12:10:56.286Z,9072.00
2018-06-21T12:11:56.291Z,7888.00
2018-06-21T12:12:56.292Z,10140.00
2018-06-21T12:13:56.294Z,7380.00
2018-06-21T12:14:56.304Z,6240.00
2018-06-21T12:15:56.307Z,6200.00
2018-06-21T12:16:56.309Z,6896.00
2018-06-21T12:17:56.313Z,6248.00
2018-06-21T12:18:56.314Z,5924.00